Time;durP1;ratioP1;P1;durP2;ratioP2;P2;SDS_P1;SDS_P2;PMS_P1;PMS_P2;Temp;Humidity;BMP_temperature;BMP_pressure;BME280_temperature;BME280_humidity;BME280_pressure;Samples;Min_cycle;Max_cycle;Signal;HPM_P1;HPM_P2
2023/01/26 00:00:04;;;;;;;;;;;;;;;16.23;43.22;101751.41;4958873;28;1256;-47
2023/01/26 00:02:30;;;;;;;;;;;;;;;15.82;44.22;101747.91;4959208;28;1065;-43
2023/01/26 00:04:55;;;;;;;;;;;;;;;15.51;44.32;101741.78;4963731;28;946;-48
2023/01/26 00:07:21;;;;;;;;;;;;;;;16.53;42.82;101736.53;4958677;28;1070;-50
2023/01/26 00:09:46;;;;;;;;;;;;;;;15.94;43.83;101729.50;4958839;28;1069;-43
2023/01/26 00:12:12;;;;;;;;;;;;;;;15.54;44.57;101728.44;4958789;28;1910;-41
2023/01/26 00:14:49;;;;;;;;;;;;;;;16.12;43.78;101724.84;4958358;28;1120;-44
2023/01/26 00:17:15;;;;;;;;;;;;;;;15.65;44.61;101734.09;4969980;28;1030;-43
2023/01/26 00:19:41;;;;;;;;;;;;;;;15.37;44.62;101725.59;4958349;28;1181;-46
2023/01/26 00:22:06;;;;;;;;;;;;;;;16.39;43.30;101728.63;4958333;28;1062;-44
2023/01/26 00:24:32;;;;;;;;;;;;;;;15.60;44.86;101734.84;4958347;28;1129;-49
2023/01/26 00:26:57;;;;;;;;;;;;;;;15.30;44.94;101732.28;4958021;28;1113;-45
2023/01/26 00:29:23;;;;;;;;;;;;;;;15.96;43.87;101726.50;4940651;29;1119;-43
2023/01/26 00:31:49;;;;;;;;;;;;;;;15.34;45.03;101715.13;4957997;28;1973;-47
2023/01/26 00:34:14;;;;;;;;;;;;;;;16.42;43.18;101713.56;4958530;28;1240;-45
2023/01/26 00:36:40;;;;;;;;;;;;;;;15.86;44.16;101710.69;4957933;28;1141;-47
2023/01/26 00:39:06;;;;;;;;;;;;;;;15.38;44.86;101710.81;4962753;28;1152;-45
2023/01/26 00:44:16;;;;;;;;;;;;;;;16.53;42.92;101711.81;4957971;28;1244;-45
2023/01/26 00:46:42;;;;;;;;;;;;;;;15.50;44.76;101701.72;4958226;28;1224;-48
2023/01/26 00:49:07;;;;;;;;;;;;;;;15.82;44.63;101704.03;4940552;28;1237;-44
2023/01/26 00:51:33;;;;;;;;;;;;;;;16.30;43.28;101702.69;4960388;28;1980;-48
2023/01/26 00:53:58;;;;;;;;;;;;;;;15.53;44.77;101695.78;4962454;28;1058;-50
2023/01/26 00:56:26;;;;;;;;;;;;;;;15.86;44.54;101691.47;4961902;28;1145;-47
2023/01/26 00:58:52;;;;;;;;;;;;;;;15.80;44.29;101679.59;4946846;28;1128;-49
2023/01/26 01:01:17;;;;;;;;;;;;;;;15.32;44.94;101678.91;4964227;28;1045;-50
2023/01/26 01:03:43;;;;;;;;;;;;;;;16.79;42.38;101669.13;4948560;28;1189;-50
2023/01/26 01:06:08;;;;;;;;;;;;;;;15.59;44.85;101672.84;4964452;28;990;-50
2023/01/26 01:08:33;;;;;;;;;;;;;;;15.36;45.15;101665.53;4964305;28;1093;-57
2023/01/26 01:11:06;;;;;;;;;;;;;;;15.86;44.18;101677.78;4964294;28;1910;-54
2023/01/26 01:13:32;;;;;;;;;;;;;;;15.67;45.13;101669.72;4947197;28;1124;-55
2023/01/26 01:15:58;;;;;;;;;;;;;;;17.53;40.82;101658.75;4968003;28;1062;-59
2023/01/26 01:18:23;;;;;;;;;;;;;;;16.02;43.82;101671.47;4968527;28;1233;-59
2023/01/26 01:20:48;;;;;;;;;;;;;;;16.65;42.96;101654.91;4959756;28;1500;-56
2023/01/26 01:23:14;;;;;;;;;;;;;;;16.72;42.19;101663.78;4963906;28;1141;-55
2023/01/26 01:25:39;;;;;;;;;;;;;;;15.75;44.53;101665.75;4964148;28;1056;-56
2023/01/26 01:28:05;;;;;;;;;;;;;;;15.60;44.68;101662.72;4964036;28;1086;-46
2023/01/26 01:30:30;;;;;;;;;;;;;;;15.70;44.28;101663.75;4963629;28;1022;-48
2023/01/26 01:32:55;;;;;;;;;;;;;;;15.91;44.01;101661.41;4964148;28;1923;-57
2023/01/26 01:35:21;;;;;;;;;;;;;;;15.46;44.94;101663.03;4964394;28;1058;-56
2023/01/26 01:37:47;;;;;;;;;;;;;;;17.14;41.76;101658.84;4963820;28;1146;-45
2023/01/26 01:40:12;;;;;;;;;;;;;;;15.77;44.37;101657.25;4973993;28;1169;-49
2023/01/26 01:42:44;;;;;;;;;;;;;;;15.62;45.23;101650.44;4968605;28;1065;-48
2023/01/26 01:45:25;;;;;;;;;;;;;;;16.13;43.70;101652.44;4964108;28;1121;-49
2023/01/26 01:47:52;;;;;;;;;;;;;;;15.60;44.89;101651.75;4963762;28;1132;-52
2023/01/26 01:50:17;;;;;;;;;;;;;;;16.99;41.87;101663.09;4930777;29;1446;-48
2023/01/26 01:52:43;;;;;;;;;;;;;;;15.80;44.56;101654.91;4950098;28;1922;-50
2023/01/26 01:55:08;;;;;;;;;;;;;;;15.48;44.70;101647.16;4946713;29;1073;-52
2023/01/26 01:57:44;;;;;;;;;;;;;;;16.12;43.89;101659.00;4946832;29;1121;-48
2023/01/26 02:00:10;;;;;;;;;;;;;;;15.63;44.68;101656.75;4946528;29;1593;-47
2023/01/26 02:02:39;;;;;;;;;;;;;;;17.00;42.11;101652.91;4946949;29;1125;-49
2023/01/26 02:05:06;;;;;;;;;;;;;;;16.97;41.82;101643.28;4956513;28;1539;-51
2023/01/26 02:07:32;;;;;;;;;;;;;;;15.91;44.15;101647.69;4990216;28;1092;-47
2023/01/26 02:12:41;;;;;;;;;;;;;;;15.86;44.32;101640.19;4930235;29;1997;-54
2023/01/26 02:15:07;;;;;;;;;;;;;;;15.49;44.75;101635.13;4959762;28;1256;-53
2023/01/26 02:17:32;;;;;;;;;;;;;;;15.77;44.67;101629.84;4957173;28;1534;-54
2023/01/26 02:20:03;;;;;;;;;;;;;;;16.24;43.47;101626.81;4943062;28;1186;-43
2023/01/26 02:22:33;;;;;;;;;;;;;;;15.60;44.59;101627.94;4928104;29;1393;-48
2023/01/26 02:25:00;;;;;;;;;;;;;;;17.48;40.97;101615.56;4960473;28;1039;-50
2023/01/26 02:27:26;;;;;;;;;;;;;;;16.11;43.78;101608.78;4943730;29;1082;-50
2023/01/26 02:29:51;;;;;;;;;;;;;;;15.64;44.56;101609.91;4953757;29;1212;-46
2023/01/26 02:32:17;;;;;;;;;;;;;;;15.39;44.57;101605.63;4942878;29;1907;-53
2023/01/26 02:34:43;;;;;;;;;;;;;;;15.36;44.73;101608.84;4955969;29;1193;-57
2023/01/26 02:37:12;;;;;;;;;;;;;;;16.17;43.61;101598.72;4959970;28;1395;-52
2023/01/26 02:39:48;;;;;;;;;;;;;;;16.84;42.56;101594.19;4943972;29;1596;-52
2023/01/26 02:44:59;;;;;;;;;;;;;;;16.50;43.17;101597.84;4960460;28;990;-55
2023/01/26 02:47:24;;;;;;;;;;;;;;;15.89;44.15;101597.72;4927035;28;1594;-55
2023/01/26 02:49:50;;;;;;;;;;;;;;;15.62;44.26;101598.34;4960111;28;1108;-56
2023/01/26 02:52:18;;;;;;;;;;;;;;;15.40;44.54;101593.59;4942836;28;1969;-52
2023/01/26 02:57:33;;;;;;;;;;;;;;;15.55;44.72;101594.94;4974641;28;1085;-53
2023/01/26 02:59:59;;;;;;;;;;;;;;;16.40;43.26;101595.78;4944126;29;1445;-52
2023/01/26 03:02:25;;;;;;;;;;;;;;;16.07;43.81;101596.66;4940265;28;1353;-54
2023/01/26 03:04:50;;;;;;;;;;;;;;;16.08;44.39;101590.09;4974069;28;1551;-53
2023/01/26 03:07:16;;;;;;;;;;;;;;;17.53;41.01;101587.25;4960788;28;986;-54
2023/01/26 03:09:41;;;;;;;;;;;;;;;16.03;44.00;101590.84;4959608;28;1140;-52
2023/01/26 03:12:07;;;;;;;;;;;;;;;15.71;44.64;101585.06;4959546;28;1960;-51
2023/01/26 03:14:33;;;;;;;;;;;;;;;15.40;44.75;101588.09;4942087;29;2231;-53
2023/01/26 03:16:58;;;;;;;;;;;;;;;15.35;44.46;101585.25;4960353;28;1061;-53
2023/01/26 03:27:46;;;;;;;;;;;;;;;16.40;43.33;101584.00;4955730;28;1620;-53
2023/01/26 03:30:13;;;;;;;;;;;;;;;15.83;44.31;101579.53;4934192;29;1242;-52
2023/01/26 03:32:39;;;;;;;;;;;;;;;15.96;44.19;101586.59;4941898;29;1971;-52
2023/01/26 03:35:14;;;;;;;;;;;;;;;16.15;43.96;101573.47;4973727;28;1148;-54
2023/01/26 03:37:42;;;;;;;;;;;;;;;15.64;44.83;101574.25;4974140;28;1116;-54
2023/01/26 03:56:43;;;;;;;;;;;;;;;15.81;44.45;101592.66;4973893;28;1649;-53
2023/01/26 03:59:14;;;;;;;;;;;;;;;15.42;45.10;101589.75;4941370;29;1253;-53
2023/01/26 04:09:57;;;;;;;;;;;;;;;15.26;44.94;101573.00;4958808;28;1054;-57
2023/01/26 04:12:22;;;;;;;;;;;;;;;15.73;44.64;101567.28;4941505;29;1910;-55
2023/01/26 04:23:20;;;;;;;;;;;;;;;16.74;42.82;101565.47;4973171;28;1525;-51
2023/01/26 04:25:48;;;;;;;;;;;;;;;15.98;44.25;101563.31;4941113;29;1224;-49
2023/01/26 04:28:14;;;;;;;;;;;;;;;15.46;45.16;101563.50;4941355;28;1178;-52
2023/01/26 04:30:40;;;;;;;;;;;;;;;16.37;43.50;101571.59;4977247;28;2185;-48
2023/01/26 04:33:06;;;;;;;;;;;;;;;15.48;45.43;101561.38;4940837;28;2005;-50
2023/01/26 04:35:32;;;;;;;;;;;;;;;15.16;45.43;101562.69;4940998;29;1134;-49
2023/01/26 04:37:57;;;;;;;;;;;;;;;15.09;45.31;101558.44;4973126;28;1080;-52
2023/01/26 04:40:23;;;;;;;;;;;;;;;15.82;44.52;101556.78;4946882;29;1430;-54
2023/01/26 04:42:48;;;;;;;;;;;;;;;15.17;45.67;101560.81;4968845;28;1132;-49
2023/01/26 04:45:14;;;;;;;;;;;;;;;16.64;43.14;101557.13;4941233;29;1116;-52
2023/01/26 04:47:41;;;;;;;;;;;;;;;15.83;44.55;101561.16;4940709;28;1136;-55
2023/01/26 04:50:07;;;;;;;;;;;;;;;15.28;45.42;101553.59;4973039;28;1215;-56
2023/01/26 04:52:32;;;;;;;;;;;;;;;15.16;45.41;101559.13;4943233;28;1946;-56
2023/01/26 04:54:58;;;;;;;;;;;;;;;16.07;44.11;101559.09;4960142;28;1170;-51
2023/01/26 04:57:24;;;;;;;;;;;;;;;15.38;45.30;101556.53;4976979;28;1090;-50
2023/01/26 04:59:50;;;;;;;;;;;;;;;15.05;45.57;101548.00;4976061;28;1100;-52
2023/01/26 05:02:18;;;;;;;;;;;;;;;15.06;45.48;101552.38;4959830;28;1156;-53
2023/01/26 05:04:43;;;;;;;;;;;;;;;15.57;45.09;101555.22;4977367;28;1113;-54
2023/01/26 05:07:09;;;;;;;;;;;;;;;15.10;45.65;101554.66;4978484;28;1295;-56
2023/01/26 05:09:35;;;;;;;;;;;;;;;16.54;43.44;101546.03;4960136;28;1211;-48
2023/01/26 05:12:32;;;;;;;;;;;;;;;15.49;45.81;101552.06;4920112;28;1980;-46
2023/01/26 05:15:25;;;;;;;;;;;;;;;17.64;40.87;101544.19;4959972;28;1164;-50
2023/01/26 05:18:11;;;;;;;;;;;;;;;16.24;43.68;101548.09;4963056;28;1160;-51
2023/01/26 05:20:53;;;;;;;;;;;;;;;15.55;45.10;101545.59;4976029;28;1117;-54
2023/01/26 05:23:26;;;;;;;;;;;;;;;15.24;45.11;101545.03;4965483;28;1026;-57
2023/01/26 05:26:03;;;;;;;;;;;;;;;15.84;44.75;101543.63;4957570;28;1133;-53
2023/01/26 05:28:35;;;;;;;;;;;;;;;15.35;45.40;101546.88;4982270;28;1319;-56
2023/01/26 05:31:01;;;;;;;;;;;;;;;16.22;44.30;101550.25;4970761;28;1907;-54
2023/01/26 05:33:26;;;;;;;;;;;;;;;15.65;44.89;101551.22;4949937;28;1340;-57
2023/01/26 05:35:52;;;;;;;;;;;;;;;15.26;45.41;101556.56;4978311;28;1095;-54
2023/01/26 05:38:18;;;;;;;;;;;;;;;16.30;43.88;101565.47;4945801;28;1314;-55
2023/01/26 05:40:44;;;;;;;;;;;;;;;15.36;45.58;101570.47;4974554;28;1307;-51
2023/01/26 05:43:10;;;;;;;;;;;;;;;16.94;42.50;101561.34;4952895;28;1148;-51
2023/01/26 05:46:07;;;;;;;;;;;;;;;16.32;43.77;101559.72;4962563;28;1126;-52
2023/01/26 05:48:32;;;;;;;;;;;;;;;15.71;44.98;101552.16;4983164;28;1117;-54
2023/01/26 05:50:58;;;;;;;;;;;;;;;17.22;41.57;101556.72;4961856;28;1902;-55
2023/01/26 05:53:24;;;;;;;;;;;;;;;15.89;44.31;101557.44;4992479;28;1232;-53
2023/01/26 05:55:50;;;;;;;;;;;;;;;15.57;45.05;101562.59;4962494;28;1150;-55
2023/01/26 05:58:19;;;;;;;;;;;;;;;16.56;43.03;101560.31;4978540;28;1308;-54
2023/01/26 06:00:45;;;;;;;;;;;;;;;15.66;44.96;101557.56;4959564;28;1116;-52
2023/01/26 06:03:18;;;;;;;;;;;;;;;15.95;44.50;101560.25;4969825;28;1093;-54
2023/01/26 06:05:50;;;;;;;;;;;;;;;16.02;44.37;101563.63;4994526;28;1168;-55
2023/01/26 06:08:22;;;;;;;;;;;;;;;16.08;44.36;101565.41;4962883;28;1302;-55
2023/01/26 06:11:10;;;;;;;;;;;;;;;17.16;41.82;101547.59;4960961;28;1969;-55
2023/01/26 06:13:48;;;;;;;;;;;;;;;15.92;44.27;101542.38;4964688;28;880;-47
2023/01/26 06:16:22;;;;;;;;;;;;;;;15.82;44.52;101550.44;4962881;28;1137;-53
2023/01/26 06:18:48;;;;;;;;;;;;;;;16.21;43.82;101553.25;4962113;28;1347;-55
2023/01/26 06:21:14;;;;;;;;;;;;;;;16.50;43.27;101553.09;4951024;29;1121;-56
2023/01/26 06:23:39;;;;;;;;;;;;;;;16.03;44.07;101551.59;4961326;28;1105;-51
2023/01/26 06:26:06;;;;;;;;;;;;;;;15.70;44.98;101547.78;4994868;28;1135;-56
2023/01/26 06:28:32;;;;;;;;;;;;;;;15.50;45.33;101550.97;4962259;28;1120;-51
2023/01/26 06:30:59;;;;;;;;;;;;;;;15.29;45.92;101545.16;4982989;28;1173;-57
2023/01/26 06:33:26;;;;;;;;;;;;;;;15.16;46.23;101532.56;4955815;29;1289;-57
2023/01/26 06:35:54;;;;;;;;;;;;;;;16.43;43.09;101537.63;4971118;28;1110;-55
2023/01/26 06:38:20;;;;;;;;;;;;;;;16.79;42.36;101541.91;4966863;28;1204;-57
2023/01/26 06:40:46;;;;;;;;;;;;;;;15.85;44.19;101544.44;4956974;28;1310;-55
2023/01/26 06:43:11;;;;;;;;;;;;;;;15.51;45.17;101538.94;4955636;29;1135;-57
2023/01/26 06:45:37;;;;;;;;;;;;;;;15.86;44.70;101552.44;4970345;28;1223;-55
2023/01/26 06:48:02;;;;;;;;;;;;;;;17.30;41.45;101541.69;4942766;29;1229;-57
2023/01/26 06:50:30;;;;;;;;;;;;;;;16.69;42.56;101537.13;4948510;29;1200;-51
2023/01/26 06:52:56;;;;;;;;;;;;;;;15.94;44.44;101547.63;4948302;28;1973;-57
2023/01/26 06:55:50;;;;;;;;;;;;;;;15.57;45.26;101538.78;4971349;28;1211;-58
2023/01/26 06:58:45;;;;;;;;;;;;;;;15.30;45.58;101535.81;4955647;28;1258;-58
2023/01/26 07:01:17;;;;;;;;;;;;;;;16.54;42.95;101532.28;4967789;28;1022;-53
2023/01/26 07:03:43;;;;;;;;;;;;;;;17.67;40.68;101525.25;4968309;28;1125;-57
2023/01/26 07:06:11;;;;;;;;;;;;;;;16.71;42.70;101516.56;4972490;28;1057;-56
2023/01/26 07:08:37;;;;;;;;;;;;;;;16.10;44.51;101519.31;4952927;29;1146;-54
2023/01/26 07:11:02;;;;;;;;;;;;;;;15.72;45.05;101513.53;4961179;28;1989;-57
2023/01/26 07:13:28;;;;;;;;;;;;;;;15.60;45.49;101517.41;4978969;28;1034;-57
2023/01/26 07:16:00;;;;;;;;;;;;;;;17.19;42.03;101518.75;4978789;28;1097;-55
2023/01/26 07:18:25;;;;;;;;;;;;;;;17.45;41.19;101512.41;4964772;28;2648;-57
2023/01/26 07:20:51;;;;;;;;;;;;;;;16.54;43.39;101511.16;4967585;28;1061;-55
2023/01/26 07:23:16;;;;;;;;;;;;;;;16.16;44.28;101510.09;4974432;28;1034;-49
2023/01/26 07:25:42;;;;;;;;;;;;;;;15.80;45.14;101508.75;4978965;28;1140;-58
2023/01/26 07:28:09;;;;;;;;;;;;;;;15.94;45.21;101517.47;4965543;28;1134;-58
2023/01/26 07:30:35;;;;;;;;;;;;;;;17.45;41.54;101511.59;4970279;28;1106;-59
2023/01/26 07:33:00;;;;;;;;;;;;;;;16.64;43.30;101507.69;4973800;28;1958;-57
2023/01/26 07:35:25;;;;;;;;;;;;;;;16.17;44.24;101502.69;4978492;28;1116;-55
2023/01/26 07:37:51;;;;;;;;;;;;;;;17.15;42.31;101493.72;4976840;28;1048;-54
2023/01/26 07:40:16;;;;;;;;;;;;;;;17.40;41.68;101489.53;4973088;28;1181;-55
2023/01/26 07:42:42;;;;;;;;;;;;;;;16.48;43.62;101492.97;4975995;28;1136;-58
2023/01/26 07:45:17;;;;;;;;;;;;;;;16.07;44.60;101492.41;4968617;28;1034;-57
2023/01/26 07:47:43;;;;;;;;;;;;;;;15.81;45.30;101483.81;4961431;28;1116;-54
2023/01/26 07:50:10;;;;;;;;;;;;;;;15.62;45.75;101480.47;4958866;28;1245;-53
2023/01/26 07:52:35;;;;;;;;;;;;;;;16.03;45.05;101472.88;4962336;28;1961;-48
2023/01/26 07:55:01;;;;;;;;;;;;;;;17.47;41.59;101470.09;4964031;28;1117;-56
2023/01/26 07:57:26;;;;;;;;;;;;;;;16.88;42.76;101457.97;4971780;28;1146;-52
2023/01/26 07:59:52;;;;;;;;;;;;;;;16.17;44.07;101459.63;4968200;28;1117;-55
2023/01/26 08:02:17;;;;;;;;;;;;;;;15.86;44.89;101452.88;4978028;28;1066;-45
2023/01/26 08:04:42;;;;;;;;;;;;;;;15.84;45.29;101458.63;4968757;28;1176;-51
2023/01/26 08:07:08;;;;;;;;;;;;;;;17.27;42.06;101453.16;4970554;28;1046;-56
2023/01/26 08:09:34;;;;;;;;;;;;;;;17.57;41.15;101448.16;4967986;28;1137;-56
2023/01/26 08:12:00;;;;;;;;;;;;;;;16.54;43.60;101463.66;4977410;28;1902;-57
2023/01/26 08:14:26;;;;;;;;;;;;;;;16.04;44.73;101463.56;4977798;28;1026;-57
2023/01/26 08:16:51;;;;;;;;;;;;;;;15.84;45.37;101458.63;4977503;28;1088;-58
2023/01/26 08:19:17;;;;;;;;;;;;;;;15.72;45.32;101464.19;4977069;28;1065;-55
2023/01/26 08:21:42;;;;;;;;;;;;;;;17.36;41.92;101470.00;4965241;28;1153;-56
2023/01/26 08:24:09;;;;;;;;;;;;;;;17.05;42.28;101468.88;4977332;28;1077;-55
2023/01/26 08:26:35;;;;;;;;;;;;;;;16.31;44.16;101481.19;4974896;28;1041;-53
2023/01/26 08:29:00;;;;;;;;;;;;;;;15.96;44.75;101477.69;4967644;28;1150;-56
2023/01/26 08:31:27;;;;;;;;;;;;;;;15.77;45.28;101485.34;4964099;28;1965;-53
2023/01/26 08:33:54;;;;;;;;;;;;;;;16.49;43.90;101499.28;4977438;28;1045;-51
2023/01/26 08:36:19;;;;;;;;;;;;;;;17.65;41.03;101482.59;4979321;28;1224;-57
2023/01/26 08:38:45;;;;;;;;;;;;;;;16.50;43.59;101476.22;4975441;28;1141;-53
2023/01/26 08:41:10;;;;;;;;;;;;;;;16.03;44.84;101464.66;4970764;28;1071;-56
2023/01/26 08:43:36;;;;;;;;;;;;;;;15.81;45.00;101474.72;4966333;28;1066;-54
2023/01/26 08:46:01;;;;;;;;;;;;;;;15.71;45.51;101467.16;4974864;28;1042;-56
2023/01/26 08:48:28;;;;;;;;;;;;;;;17.34;42.00;101461.19;4966700;28;1153;-55
2023/01/26 08:50:54;;;;;;;;;;;;;;;17.35;41.63;101451.84;4991686;28;1080;-53
2023/01/26 08:53:19;;;;;;;;;;;;;;;16.24;44.16;101453.94;4975858;28;1985;-56
2023/01/26 08:55:45;;;;;;;;;;;;;;;16.06;44.79;101453.16;4976643;28;994;-56
2023/01/26 08:58:10;;;;;;;;;;;;;;;15.86;45.31;101452.88;4963862;28;1081;-56
2023/01/26 09:00:36;;;;;;;;;;;;;;;15.64;45.73;101442.66;4974066;28;1061;-53
2023/01/26 09:03:01;;;;;;;;;;;;;;;15.96;45.06;101446.72;4970576;28;1125;-57
2023/01/26 09:05:27;;;;;;;;;;;;;;;17.42;41.57;101438.72;4964322;28;1364;-55
2023/01/26 09:07:52;;;;;;;;;;;;;;;17.08;42.29;101436.22;4971397;28;1074;-54
2023/01/26 09:10:18;;;;;;;;;;;;;;;16.30;43.94;101422.75;4976783;28;1018;-54
2023/01/26 09:12:43;;;;;;;;;;;;;;;15.96;44.82;101414.59;4972028;28;1898;-52
2023/01/26 09:15:09;;;;;;;;;;;;;;;15.76;45.41;101414.31;4961373;28;1051;-55
2023/01/26 09:17:35;;;;;;;;;;;;;;;16.42;44.14;101415.22;4959595;28;1202;-52
2023/01/26 09:20:00;;;;;;;;;;;;;;;17.70;40.76;101402.88;4960691;28;1219;-53
2023/01/26 09:22:25;;;;;;;;;;;;;;;16.66;43.31;101412.19;4961334;29;1206;-54
2023/01/26 09:24:51;;;;;;;;;;;;;;;16.14;44.47;101399.75;4960348;29;1261;-53
2023/01/26 09:27:16;;;;;;;;;;;;;;;15.64;45.55;101396.06;4961038;29;1193;-52
2023/01/26 09:29:42;;;;;;;;;;;;;;;16.54;43.88;101386.78;4960597;29;1225;-54
2023/01/26 09:32:07;;;;;;;;;;;;;;;17.70;40.90;101387.19;4961232;28;1914;-52
2023/01/26 09:34:33;;;;;;;;;;;;;;;16.50;43.52;101385.63;4959987;29;1281;-55
2023/01/26 09:36:58;;;;;;;;;;;;;;;15.99;44.94;101375.72;4965947;28;1182;-55
2023/01/26 09:39:24;;;;;;;;;;;;;;;15.79;45.39;101381.75;4964019;28;1141;-54
2023/01/26 09:42:03;;;;;;;;;;;;;;;15.87;45.49;101378.56;4971286;28;1102;-55
2023/01/26 09:44:30;;;;;;;;;;;;;;;17.59;41.68;101361.56;4993306;28;1403;-58
2023/01/26 09:47:18;;;;;;;;;;;;;;;17.00;42.65;101359.78;4974916;28;1124;-56
2023/01/26 09:49:48;;;;;;;;;;;;;;;16.33;44.58;101352.81;4959612;28;1490;-55
2023/01/26 09:52:19;;;;;;;;;;;;;;;16.00;45.11;101358.16;4940934;29;1910;-53
2023/01/26 09:54:49;;;;;;;;;;;;;;;15.89;45.66;101345.41;4959758;29;1237;-57
2023/01/26 09:57:15;;;;;;;;;;;;;;;17.37;42.32;101333.38;4962226;28;1210;-53
2023/01/26 09:59:50;;;;;;;;;;;;;;;16.75;43.18;101333.72;4960341;29;1304;-54
2023/01/26 10:02:15;;;;;;;;;;;;;;;16.16;44.73;101325.41;4973138;28;1133;-55
2023/01/26 10:04:42;;;;;;;;;;;;;;;15.88;45.57;101330.06;4960221;28;1698;-57
2023/01/26 10:07:10;;;;;;;;;;;;;;;15.63;46.27;101317.63;4941952;28;2870;-57
2023/01/26 10:09:48;;;;;;;;;;;;;;;16.94;42.99;101308.63;4958494;28;1853;-57
2023/01/26 10:12:15;;;;;;;;;;;;;;;17.12;42.55;101309.31;4967759;28;1907;-57
2023/01/26 10:14:44;;;;;;;;;;;;;;;16.22;44.34;101313.44;4942346;29;1975;-53
2023/01/26 10:17:21;;;;;;;;;;;;;;;15.83;45.55;101303.38;4959659;29;1762;-58
2023/01/26 10:19:48;;;;;;;;;;;;;;;15.59;45.89;101299.22;4957550;28;1758;-56
2023/01/26 10:22:19;;;;;;;;;;;;;;;16.90;42.88;101297.34;4973766;28;2121;-54
2023/01/26 10:24:46;;;;;;;;;;;;;;;17.48;41.44;101284.78;4969037;28;1079;-55
2023/01/26 10:27:13;;;;;;;;;;;;;;;16.42;44.15;101279.88;4976832;28;1129;-55
2023/01/26 10:29:38;;;;;;;;;;;;;;;16.00;44.79;101272.31;4961240;28;1069;-53
2023/01/26 10:32:04;;;;;;;;;;;;;;;15.71;45.74;101259.63;4973168;28;1979;-55
2023/01/26 10:34:30;;;;;;;;;;;;;;;15.68;45.87;101262.88;4978996;28;1014;-56
2023/01/26 10:36:59;;;;;;;;;;;;;;;17.27;42.16;101269.00;4965899;28;1184;-54
2023/01/26 10:39:25;;;;;;;;;;;;;;;16.70;43.19;101270.50;4971908;28;1077;-57
2023/01/26 10:41:57;;;;;;;;;;;;;;;16.10;44.55;101255.13;4974940;28;1146;-52
2023/01/26 10:44:25;;;;;;;;;;;;;;;15.83;45.26;101253.19;4951604;29;1157;-54
2023/01/26 10:47:03;;;;;;;;;;;;;;;15.60;45.71;101252.34;4971808;28;1030;-55
2023/01/26 10:49:29;;;;;;;;;;;;;;;16.92;42.73;101256.69;4953230;28;1066;-54
2023/01/26 10:52:04;;;;;;;;;;;;;;;17.86;40.97;101249.72;4968817;28;1918;-54
2023/01/26 10:54:30;;;;;;;;;;;;;;;16.63;43.29;101255.34;4965505;28;1105;-53
2023/01/26 10:56:59;;;;;;;;;;;;;;;16.11;44.87;101251.31;4978139;28;1084;-56
2023/01/26 10:59:37;;;;;;;;;;;;;;;15.80;45.59;101245.50;4988200;28;1091;-58
2023/01/26 11:02:15;;;;;;;;;;;;;;;15.54;46.12;101236.91;4973091;28;1054;-57
2023/01/26 11:04:41;;;;;;;;;;;;;;;15.38;46.57;101223.03;4969027;28;1145;-55
2023/01/26 11:07:18;;;;;;;;;;;;;;;16.94;43.04;101231.69;4976132;28;1421;-59
2023/01/26 11:09:43;;;;;;;;;;;;;;;16.91;42.61;101224.00;4982696;28;887;-54
2023/01/26 11:12:09;;;;;;;;;;;;;;;16.06;44.74;101225.47;4975566;28;1906;-54
2023/01/26 11:14:35;;;;;;;;;;;;;;;15.73;45.66;101224.53;4993125;28;1579;-54
2023/01/26 11:17:03;;;;;;;;;;;;;;;15.50;45.98;101224.81;4973971;28;1013;-53
2023/01/26 11:19:41;;;;;;;;;;;;;;;16.72;43.35;101215.34;4969395;28;976;-57
2023/01/26 11:22:08;;;;;;;;;;;;;;;17.58;41.45;101221.59;4982540;28;1820;-56
2023/01/26 11:24:36;;;;;;;;;;;;;;;16.40;44.12;101211.50;4965993;28;1058;-57
2023/01/26 11:27:11;;;;;;;;;;;;;;;15.97;44.89;101212.50;4986270;28;1042;-57
2023/01/26 11:29:54;;;;;;;;;;;;;;;15.67;45.49;101221.97;4958824;28;1094;-57
2023/01/26 11:32:38;;;;;;;;;;;;;;;15.88;45.23;101221.19;4977349;28;1902;-56
2023/01/26 11:35:16;;;;;;;;;;;;;;;17.48;41.67;101207.81;4976863;28;1013;-53
2023/01/26 11:38:00;;;;;;;;;;;;;;;16.42;43.78;101197.53;4977392;28;1161;-54
2023/01/26 11:40:31;;;;;;;;;;;;;;;15.88;45.19;101190.19;4982360;28;1161;-56
2023/01/26 11:43:07;;;;;;;;;;;;;;;15.64;45.54;101198.69;4992528;28;1021;-57
2023/01/26 11:45:37;;;;;;;;;;;;;;;15.46;46.35;101207.22;4966950;28;1177;-57
2023/01/26 11:48:15;;;;;;;;;;;;;;;16.74;43.45;101194.72;4976392;28;1087;-56
2023/01/26 11:50:45;;;;;;;;;;;;;;;17.50;41.53;101194.59;4963473;28;1931;-56
2023/01/26 11:53:10;;;;;;;;;;;;;;;16.31;44.12;101184.81;4948445;28;1898;-56
2023/01/26 11:55:54;;;;;;;;;;;;;;;15.90;45.38;101193.50;4977264;28;1057;-56
2023/01/26 11:58:20;;;;;;;;;;;;;;;15.64;45.61;101204.16;4967287;28;920;-55
2023/01/26 12:01:11;;;;;;;;;;;;;;;15.71;45.69;101199.31;4970913;28;1102;-57
2023/01/26 12:03:42;;;;;;;;;;;;;;;17.43;41.59;101194.84;4969485;28;1924;-56
2023/01/26 12:06:12;;;;;;;;;;;;;;;16.66;43.52;101195.25;4991960;28;1044;-56
2023/01/26 12:08:38;;;;;;;;;;;;;;;16.04;44.78;101178.25;4987083;28;1009;-56
2023/01/26 12:11:22;;;;;;;;;;;;;;;15.70;45.63;101181.19;4965947;28;1035;-56
2023/01/26 12:14:07;;;;;;;;;;;;;;;15.60;45.97;101185.72;4963951;28;1102;-56
2023/01/26 12:16:35;;;;;;;;;;;;;;;17.34;42.00;101180.81;4977108;28;1006;-54
2023/01/26 12:19:19;;;;;;;;;;;;;;;16.61;43.47;101184.22;4964302;28;1034;-55
2023/01/26 12:21:44;;;;;;;;;;;;;;;15.94;44.94;101186.41;4964133;28;1916;-57
2023/01/26 12:24:15;;;;;;;;;;;;;;;15.69;45.87;101179.53;4966698;28;1173;-56
2023/01/26 12:26:42;;;;;;;;;;;;;;;15.51;46.00;101188.09;4964822;28;1049;-58
2023/01/26 12:29:26;;;;;;;;;;;;;;;16.54;43.84;101172.66;4977481;28;1045;-56
2023/01/26 12:32:04;;;;;;;;;;;;;;;17.57;41.21;101182.28;4977229;28;1975;-57
2023/01/26 12:34:31;;;;;;;;;;;;;;;16.32;44.11;101170.81;4991306;28;977;-58
2023/01/26 12:37:03;;;;;;;;;;;;;;;15.92;44.92;101177.59;4976436;28;1065;-56
2023/01/26 12:39:32;;;;;;;;;;;;;;;15.72;45.67;101170.81;4969190;28;1053;-59
2023/01/26 12:41:57;;;;;;;;;;;;;;;15.80;45.64;101160.50;4970138;28;1106;-59
2023/01/26 12:44:23;;;;;;;;;;;;;;;17.33;42.23;101156.34;4970331;28;1058;-57
2023/01/26 12:46:56;;;;;;;;;;;;;;;16.72;43.16;101153.00;4976079;28;902;-58
2023/01/26 12:49:23;;;;;;;;;;;;;;;16.05;44.88;101154.41;4963585;28;1126;-57
2023/01/26 12:51:50;;;;;;;;;;;;;;;15.73;45.50;101147.75;4986179;28;2200;-57
2023/01/26 12:54:15;;;;;;;;;;;;;;;15.54;46.07;101150.06;4978970;28;1129;-58
2023/01/26 12:56:45;;;;;;;;;;;;;;;16.82;43.22;101154.97;4976764;28;1156;-58
2023/01/26 12:59:15;;;;;;;;;;;;;;;17.33;42.06;101150.84;4977975;28;928;-57
2023/01/26 13:01:40;;;;;;;;;;;;;;;16.24;44.55;101136.47;4968974;28;1073;-57
2023/01/26 13:04:10;;;;;;;;;;;;;;;15.90;45.23;101141.38;4972030;28;1034;-57
2023/01/26 13:06:35;;;;;;;;;;;;;;;15.65;45.97;101134.53;4983640;28;1119;-58
2023/01/26 13:09:13;;;;;;;;;;;;;;;15.51;46.24;101136.03;4962755;28;1165;-57
2023/01/26 13:11:38;;;;;;;;;;;;;;;17.15;42.41;101119.97;4971261;28;1938;-54
2023/01/26 13:14:22;;;;;;;;;;;;;;;17.27;42.27;101114.25;4958345;28;1077;-58
2023/01/26 13:16:48;;;;;;;;;;;;;;;16.19;44.76;101091.72;4970640;28;1173;-56
2023/01/26 13:19:33;;;;;;;;;;;;;;;15.86;45.48;101097.19;4963201;28;1496;-55
2023/01/26 13:21:58;;;;;;;;;;;;;;;15.61;45.98;101089.53;4948549;28;1971;-56
2023/01/26 13:24:24;;;;;;;;;;;;;;;15.63;46.24;101087.38;4949514;28;1033;-57
2023/01/26 13:26:50;;;;;;;;;;;;;;;17.21;42.37;101080.44;4973931;28;1134;-56
2023/01/26 13:29:24;;;;;;;;;;;;;;;16.99;42.61;101074.34;4966659;28;1089;-55
2023/01/26 13:31:53;;;;;;;;;;;;;;;16.14;44.63;101072.47;4961479;28;1914;-57
2023/01/26 13:34:20;;;;;;;;;;;;;;;15.84;45.72;101082.09;4958013;28;1105;-56
2023/01/26 13:36:46;;;;;;;;;;;;;;;15.59;46.28;101052.50;4985716;28;1189;-57
2023/01/26 13:39:17;;;;;;;;;;;;;;;16.38;44.23;101081.13;4985506;28;985;-54
2023/01/26 13:41:46;;;;;;;;;;;;;;;17.51;41.92;101070.59;4975685;28;1138;-55
2023/01/26 13:44:22;;;;;;;;;;;;;;;16.43;44.12;101084.72;4976564;28;970;-54
2023/01/26 13:46:50;;;;;;;;;;;;;;;15.91;45.37;101071.75;4979036;28;1040;-55